sensor_id;sensor_type;location;lat;lon;timestamp;pressure;altitude;pressure_sealevel;temperature;humidity
42633;BME280;28261;53.304;-6.284;2023-02-10T00:01:27;102984.56;;;4.80;75.18
42633;BME280;28261;53.304;-6.284;2023-02-10T00:03:32;102977.59;;;4.79;75.38
42633;BME280;28261;53.304;-6.284;2023-02-10T00:05:37;102986.38;;;4.76;75.27
42633;BME280;28261;53.304;-6.284;2023-02-10T00:07:42;102990.72;;;4.75;75.36
42633;BME280;28261;53.304;-6.284;2023-02-10T00:09:48;102970.63;;;4.74;75.52
42633;BME280;28261;53.304;-6.284;2023-02-10T00:11:52;102964.47;;;4.74;75.47
42633;BME280;28261;53.304;-6.284;2023-02-10T00:14:03;102956.63;;;4.69;75.36
42633;BME280;28261;53.304;-6.284;2023-02-10T00:16:13;102963.66;;;4.69;75.54
42633;BME280;28261;53.304;-6.284;2023-02-10T00:18:17;102974.13;;;4.67;75.35
42633;BME280;28261;53.304;-6.284;2023-02-10T00:20:22;102975.91;;;4.67;75.66
42633;BME280;28261;53.304;-6.284;2023-02-10T00:22:26;102972.41;;;4.66;75.57
42633;BME280;28261;53.304;-6.284;2023-02-10T00:24:30;102972.41;;;4.66;75.67
42633;BME280;28261;53.304;-6.284;2023-02-10T00:26:35;102981.16;;;4.68;75.40
42633;BME280;28261;53.304;-6.284;2023-02-10T00:28:39;102966.25;;;4.72;75.56
42633;BME280;28261;53.304;-6.284;2023-02-10T00:30:45;102963.59;;;4.73;75.75
42633;BME280;28261;53.304;-6.284;2023-02-10T00:32:50;102957.44;;;4.78;75.36
42633;BME280;28261;53.304;-6.284;2023-02-10T00:34:55;102942.53;;;4.80;75.31
42633;BME280;28261;53.304;-6.284;2023-02-10T00:36:59;102946.00;;;4.83;75.43
42633;BME280;28261;53.304;-6.284;2023-02-10T00:39:03;102947.75;;;4.86;75.27
42633;BME280;28261;53.304;-6.284;2023-02-10T00:41:10;102952.13;;;4.88;75.68
42633;BME280;28261;53.304;-6.284;2023-02-10T00:43:15;102945.97;;;4.91;75.19
42633;BME280;28261;53.304;-6.284;2023-02-10T00:45:20;102954.69;;;4.93;75.23
42633;BME280;28261;53.304;-6.284;2023-02-10T00:47:25;102959.97;;;4.96;75.08
42633;BME280;28261;53.304;-6.284;2023-02-10T00:49:31;102952.91;;;4.98;75.50
42633;BME280;28261;53.304;-6.284;2023-02-10T00:51:35;102954.63;;;5.02;75.21
42633;BME280;28261;53.304;-6.284;2023-02-10T00:53:40;102945.88;;;5.03;75.36
42633;BME280;28261;53.304;-6.284;2023-02-10T00:55:45;102948.47;;;5.06;75.38
42633;BME280;28261;53.304;-6.284;2023-02-10T00:57:51;102934.44;;;5.09;75.30
42633;BME280;28261;53.304;-6.284;2023-02-10T00:59:55;102931.78;;;5.11;75.39
42633;BME280;28261;53.304;-6.284;2023-02-10T01:01:59;102944.06;;;5.12;75.56
42633;BME280;28261;53.304;-6.284;2023-02-10T01:04:04;102937.91;;;5.13;75.13
42633;BME280;28261;53.304;-6.284;2023-02-10T01:06:13;102928.25;;;5.13;75.25
42633;BME280;28261;53.304;-6.284;2023-02-10T01:08:18;102932.63;;;5.14;75.68
42633;BME280;28261;53.304;-6.284;2023-02-10T01:10:23;102924.72;;;5.16;75.70
42633;BME280;28261;53.304;-6.284;2023-02-10T01:12:27;102919.47;;;5.16;75.21
42633;BME280;28261;53.304;-6.284;2023-02-10T01:14:33;102918.56;;;5.18;75.74
42633;BME280;28261;53.304;-6.284;2023-02-10T01:16:38;102908.91;;;5.20;75.77
42633;BME280;28261;53.304;-6.284;2023-02-10T01:18:44;102908.88;;;5.22;75.85
42633;BME280;28261;53.304;-6.284;2023-02-10T01:20:49;102906.28;;;5.20;75.45
42633;BME280;28261;53.304;-6.284;2023-02-10T01:22:56;102895.75;;;5.20;76.04
42633;BME280;28261;53.304;-6.284;2023-02-10T01:25:01;102895.75;;;5.20;76.02
42633;BME280;28261;53.304;-6.284;2023-02-10T01:27:06;102901.00;;;5.20;76.19
42633;BME280;28261;53.304;-6.284;2023-02-10T01:29:10;102904.53;;;5.21;75.80
42633;BME280;28261;53.304;-6.284;2023-02-10T01:31:17;102905.38;;;5.23;75.72
42633;BME280;28261;53.304;-6.284;2023-02-10T01:33:22;102896.59;;;5.24;75.98
42633;BME280;28261;53.304;-6.284;2023-02-10T01:35:26;102904.47;;;5.25;76.01
42633;BME280;28261;53.304;-6.284;2023-02-10T01:37:31;102897.44;;;5.26;76.04
42633;BME280;28261;53.304;-6.284;2023-02-10T01:39:39;102900.97;;;5.27;75.90
42633;BME280;28261;53.304;-6.284;2023-02-10T01:41:44;102905.34;;;5.26;76.15
42633;BME280;28261;53.304;-6.284;2023-02-10T01:43:57;102889.56;;;5.26;76.15
42633;BME280;28261;53.304;-6.284;2023-02-10T01:46:02;102901.84;;;5.25;75.95
42633;BME280;28261;53.304;-6.284;2023-02-10T01:48:08;102889.56;;;5.26;76.62
42633;BME280;28261;53.304;-6.284;2023-02-10T01:50:13;102884.31;;;5.26;76.09
42633;BME280;28261;53.304;-6.284;2023-02-10T01:52:22;102877.31;;;5.27;76.29
42633;BME280;28261;53.304;-6.284;2023-02-10T01:54:33;102861.50;;;5.28;76.49
42633;BME280;28261;53.304;-6.284;2023-02-10T01:56:41;102863.22;;;5.31;76.56
42633;BME280;28261;53.304;-6.284;2023-02-10T01:58:47;102857.09;;;5.32;76.49
42633;BME280;28261;53.304;-6.284;2023-02-10T02:00:54;102853.53;;;5.34;76.62
42633;BME280;28261;53.304;-6.284;2023-02-10T02:02:59;102857.91;;;5.35;76.61
42633;BME280;28261;53.304;-6.284;2023-02-10T02:05:07;102861.41;;;5.37;76.16
42633;BME280;28261;53.304;-6.284;2023-02-10T02:07:23;102853.50;;;5.39;76.21
42633;BME280;28261;53.304;-6.284;2023-02-10T02:09:28;102847.34;;;5.41;76.54
42633;BME280;28261;53.304;-6.284;2023-02-10T02:11:41;102849.03;;;5.46;75.99
42633;BME280;28261;53.304;-6.284;2023-02-10T02:14:20;102850.75;;;5.47;75.99
42633;BME280;28261;53.304;-6.284;2023-02-10T02:16:34;102852.47;;;5.51;75.98
42633;BME280;28261;53.304;-6.284;2023-02-10T02:18:45;102835.81;;;5.52;75.82
42633;BME280;28261;53.304;-6.284;2023-02-10T02:21:15;102837.50;;;5.56;75.55
42633;BME280;28261;53.304;-6.284;2023-02-10T02:26:29;102827.81;;;5.59;75.37
42633;BME280;28261;53.304;-6.284;2023-02-10T02:28:47;102831.28;;;5.62;75.19
42633;BME280;28261;53.304;-6.284;2023-02-10T02:31:12;102822.50;;;5.64;75.03
42633;BME280;28261;53.304;-6.284;2023-02-10T02:33:24;102818.09;;;5.66;75.01
42633;BME280;28261;53.304;-6.284;2023-02-10T02:35:36;102809.31;;;5.69;74.80
42633;BME280;28261;53.304;-6.284;2023-02-10T02:37:44;102786.47;;;5.69;74.91
42633;BME280;28261;53.304;-6.284;2023-02-10T02:39:50;102786.44;;;5.71;74.94
42633;BME280;28261;53.304;-6.284;2023-02-10T02:42:14;102784.72;;;5.71;75.04
42633;BME280;28261;53.304;-6.284;2023-02-10T02:44:18;102789.06;;;5.72;75.02
42633;BME280;28261;53.304;-6.284;2023-02-10T02:46:28;102792.56;;;5.74;75.11
42633;BME280;28261;53.304;-6.284;2023-02-10T02:48:47;102787.25;;;5.78;75.69
42633;BME280;28261;53.304;-6.284;2023-02-10T02:51:00;102790.75;;;5.80;75.54
42633;BME280;28261;53.304;-6.284;2023-02-10T02:53:13;102789.78;;;5.82;75.15
42633;BME280;28261;53.304;-6.284;2023-02-10T02:55:26;102780.16;;;5.83;75.44
42633;BME280;28261;53.304;-6.284;2023-02-10T02:57:43;102786.25;;;5.85;75.53
42633;BME280;28261;53.304;-6.284;2023-02-10T02:59:51;102785.38;;;5.86;75.53
42633;BME280;28261;53.304;-6.284;2023-02-10T03:02:00;102771.31;;;5.87;75.61
42633;BME280;28261;53.304;-6.284;2023-02-10T03:04:06;102777.41;;;5.89;76.05
42633;BME280;28261;53.304;-6.284;2023-02-10T03:06:10;102779.19;;;5.88;75.79
42633;BME280;28261;53.304;-6.284;2023-02-10T03:08:15;102766.00;;;5.90;75.93
42633;BME280;28261;53.304;-6.284;2023-02-10T03:10:19;102778.28;;;5.91;76.45
42633;BME280;28261;53.304;-6.284;2023-02-10T03:12:23;102775.63;;;5.92;76.60
42633;BME280;28261;53.304;-6.284;2023-02-10T03:14:27;102796.63;;;5.96;76.73
42633;BME280;28261;53.304;-6.284;2023-02-10T03:16:31;102784.34;;;5.96;76.84
42633;BME280;28261;53.304;-6.284;2023-02-10T03:18:34;102787.84;;;6.00;77.28
42633;BME280;28261;53.304;-6.284;2023-02-10T03:20:40;102798.34;;;6.03;77.38
42633;BME280;28261;53.304;-6.284;2023-02-10T03:22:43;102797.41;;;6.05;77.03
42633;BME280;28261;53.304;-6.284;2023-02-10T03:24:47;102793.88;;;6.06;77.29
42633;BME280;28261;53.304;-6.284;2023-02-10T03:26:51;102792.13;;;6.05;77.36
42633;BME280;28261;53.304;-6.284;2023-02-10T03:28:55;102790.38;;;6.06;77.33
42633;BME280;28261;53.304;-6.284;2023-02-10T03:31:01;102778.97;;;6.07;77.38
42633;BME280;28261;53.304;-6.284;2023-02-10T03:33:06;102776.34;;;6.05;77.83
42633;BME280;28261;53.304;-6.284;2023-02-10T03:35:09;102773.72;;;6.07;77.76
42633;BME280;28261;53.304;-6.284;2023-02-10T03:37:15;102772.81;;;6.06;78.23
42633;BME280;28261;53.304;-6.284;2023-02-10T03:39:18;102759.63;;;6.08;78.38
42633;BME280;28261;53.304;-6.284;2023-02-10T03:41:22;102759.59;;;6.09;78.27
42633;BME280;28261;53.304;-6.284;2023-02-10T03:43:26;102755.22;;;6.10;78.72
42633;BME280;28261;53.304;-6.284;2023-02-10T03:45:29;102755.19;;;6.12;79.31
42633;BME280;28261;53.304;-6.284;2023-02-10T03:47:33;102755.16;;;6.13;79.37
42633;BME280;28261;53.304;-6.284;2023-02-10T03:49:37;102764.81;;;6.14;79.46
42633;BME280;28261;53.304;-6.284;2023-02-10T03:51:41;102762.16;;;6.16;79.55
42633;BME280;28261;53.304;-6.284;2023-02-10T03:53:46;102756.91;;;6.14;79.99
42633;BME280;28261;53.304;-6.284;2023-02-10T03:55:49;102754.28;;;6.14;80.13
42633;BME280;28261;53.304;-6.284;2023-02-10T03:57:53;102752.50;;;6.15;80.35
42633;BME280;28261;53.304;-6.284;2023-02-10T03:59:57;102743.78;;;6.13;80.95
42633;BME280;28261;53.304;-6.284;2023-02-10T04:02:01;102737.59;;;6.15;81.87
42633;BME280;28261;53.304;-6.284;2023-02-10T04:04:05;102741.06;;;6.16;81.90
42633;BME280;28261;53.304;-6.284;2023-02-10T04:06:09;102739.28;;;6.18;82.19
42633;BME280;28261;53.304;-6.284;2023-02-10T04:08:12;102734.00;;;6.19;82.63
42633;BME280;28261;53.304;-6.284;2023-02-10T04:10:17;102726.94;;;6.21;82.84
42633;BME280;28261;53.304;-6.284;2023-02-10T04:12:22;102725.16;;;6.22;82.89
42633;BME280;28261;53.304;-6.284;2023-02-10T04:14:26;102723.41;;;6.22;83.60
42633;BME280;28261;53.304;-6.284;2023-02-10T04:16:30;102712.84;;;6.24;83.36
42633;BME280;28261;53.304;-6.284;2023-02-10T04:18:34;102709.34;;;6.25;83.71
42633;BME280;28261;53.304;-6.284;2023-02-10T04:20:38;102711.03;;;6.28;84.27
42633;BME280;28261;53.304;-6.284;2023-02-10T04:22:42;102705.75;;;6.29;84.28
42633;BME280;28261;53.304;-6.284;2023-02-10T04:24:46;102707.50;;;6.30;84.95
42633;BME280;28261;53.304;-6.284;2023-02-10T04:26:51;102707.44;;;6.33;85.16
42633;BME280;28261;53.304;-6.284;2023-02-10T04:28:54;102705.63;;;6.35;85.54
42633;BME280;28261;53.304;-6.284;2023-02-10T04:30:59;102698.59;;;6.37;85.59
42633;BME280;28261;53.304;-6.284;2023-02-10T04:33:03;102702.03;;;6.39;86.37
42633;BME280;28261;53.304;-6.284;2023-02-10T04:35:07;102707.31;;;6.39;86.24
42633;BME280;28261;53.304;-6.284;2023-02-10T04:37:10;102710.78;;;6.43;86.35
42633;BME280;28261;53.304;-6.284;2023-02-10T04:39:14;102705.47;;;6.44;86.80
42633;BME280;28261;53.304;-6.284;2023-02-10T04:41:18;102708.06;;;6.46;87.09
42633;BME280;28261;53.304;-6.284;2023-02-10T04:43:23;102704.56;;;6.47;87.40
42633;BME280;28261;53.304;-6.284;2023-02-10T04:45:27;102692.19;;;6.49;87.51
42633;BME280;28261;53.304;-6.284;2023-02-10T04:47:30;102704.47;;;6.50;88.08
42633;BME280;28261;53.304;-6.284;2023-02-10T04:49:34;102694.84;;;6.51;88.11
42633;BME280;28261;53.304;-6.284;2023-02-10T04:51:38;102684.25;;;6.52;88.66
42633;BME280;28261;53.304;-6.284;2023-02-10T04:53:41;102685.13;;;6.53;88.65
42633;BME280;28261;53.304;-6.284;2023-02-10T04:55:46;102690.34;;;6.54;89.63
42633;BME280;28261;53.304;-6.284;2023-02-10T04:57:51;102679.81;;;6.54;89.81
42633;BME280;28261;53.304;-6.284;2023-02-10T04:59:56;102682.41;;;6.56;90.15
42633;BME280;28261;53.304;-6.284;2023-02-10T05:02:00;102683.28;;;6.58;90.60
42633;BME280;28261;53.304;-6.284;2023-02-10T05:04:05;102685.88;;;6.59;91.16
42633;BME280;28261;53.304;-6.284;2023-02-10T05:06:10;102686.72;;;6.62;91.79
42633;BME280;28261;53.304;-6.284;2023-02-10T05:08:14;102691.97;;;6.63;92.21
42633;BME280;28261;53.304;-6.284;2023-02-10T05:10:18;102677.88;;;6.64;92.46
42633;BME280;28261;53.304;-6.284;2023-02-10T05:12:22;102687.47;;;6.68;92.79
42633;BME280;28261;53.304;-6.284;2023-02-10T05:14:26;102690.06;;;6.71;93.16
42633;BME280;28261;53.304;-6.284;2023-02-10T05:16:32;102692.66;;;6.73;93.50
42633;BME280;28261;53.304;-6.284;2023-02-10T05:18:36;102684.72;;;6.74;94.02
42633;BME280;28261;53.304;-6.284;2023-02-10T05:20:41;102692.59;;;6.76;94.08
42633;BME280;28261;53.304;-6.284;2023-02-10T05:22:45;102687.28;;;6.77;94.22
42633;BME280;28261;53.304;-6.284;2023-02-10T05:24:50;102678.50;;;6.78;94.65
42633;BME280;28261;53.304;-6.284;2023-02-10T05:26:57;102680.22;;;6.80;94.91
42633;BME280;28261;53.304;-6.284;2023-02-10T05:29:01;102685.44;;;6.83;95.05
42633;BME280;28261;53.304;-6.284;2023-02-10T05:31:06;102681.91;;;6.84;95.37
42633;BME280;28261;53.304;-6.284;2023-02-10T05:33:12;102693.25;;;6.87;95.93
42633;BME280;28261;53.304;-6.284;2023-02-10T05:35:16;102698.47;;;6.89;96.26
42633;BME280;28261;53.304;-6.284;2023-02-10T05:37:21;102691.41;;;6.91;97.14
42633;BME280;28261;53.304;-6.284;2023-02-10T05:39:25;102695.78;;;6.93;97.26
42633;BME280;28261;53.304;-6.284;2023-02-10T05:41:30;102693.09;;;6.95;97.71
42633;BME280;28261;53.304;-6.284;2023-02-10T05:43:37;102671.13;;;6.96;98.11
42633;BME280;28261;53.304;-6.284;2023-02-10T05:45:45;102672.84;;;6.97;98.64
42633;BME280;28261;53.304;-6.284;2023-02-10T05:47:50;102683.41;;;6.97;98.67
42633;BME280;28261;53.304;-6.284;2023-02-10T05:49:56;102675.47;;;6.99;99.36
42633;BME280;28261;53.304;-6.284;2023-02-10T05:52:00;102672.78;;;7.00;99.52
42633;BME280;28261;53.304;-6.284;2023-02-10T05:54:05;102666.63;;;7.01;99.76
42633;BME280;28261;53.304;-6.284;2023-02-10T05:56:09;102670.13;;;7.02;100.00
42633;BME280;28261;53.304;-6.284;2023-02-10T05:58:14;102677.09;;;7.04;100.00
42633;BME280;28261;53.304;-6.284;2023-02-10T06:00:19;102658.56;;;7.07;100.00
42633;BME280;28261;53.304;-6.284;2023-02-10T06:02:23;102655.03;;;7.08;100.00
42633;BME280;28261;53.304;-6.284;2023-02-10T06:04:28;102667.31;;;7.09;100.00
42633;BME280;28261;53.304;-6.284;2023-02-10T06:06:34;102663.72;;;7.14;100.00
42633;BME280;28261;53.304;-6.284;2023-02-10T06:08:38;102672.44;;;7.16;100.00
42633;BME280;28261;53.304;-6.284;2023-02-10T06:10:43;102670.66;;;7.18;100.00
42633;BME280;28261;53.304;-6.284;2023-02-10T06:12:47;102669.75;;;7.19;100.00
42633;BME280;28261;53.304;-6.284;2023-02-10T06:14:52;102673.22;;;7.21;100.00
42633;BME280;28261;53.304;-6.284;2023-02-10T06:16:56;102672.34;;;7.22;100.00
42633;BME280;28261;53.304;-6.284;2023-02-10T06:19:00;102661.72;;;7.25;100.00
42633;BME280;28261;53.304;-6.284;2023-02-10T06:21:06;102674.88;;;7.26;100.00
42633;BME280;28261;53.304;-6.284;2023-02-10T06:23:12;102661.63;;;7.28;100.00
42633;BME280;28261;53.304;-6.284;2023-02-10T06:25:17;102661.59;;;7.29;100.00
42633;BME280;28261;53.304;-6.284;2023-02-10T06:27:21;102665.09;;;7.32;100.00
42633;BME280;28261;53.304;-6.284;2023-02-10T06:29:25;102670.31;;;7.33;100.00
42633;BME280;28261;53.304;-6.284;2023-02-10T06:31:29;102663.22;;;7.35;100.00
42633;BME280;28261;53.304;-6.284;2023-02-10T06:33:34;102666.72;;;7.37;100.00
42633;BME280;28261;53.304;-6.284;2023-02-10T06:35:38;102667.53;;;7.41;100.00
42633;BME280;28261;53.304;-6.284;2023-02-10T06:37:43;102671.88;;;7.42;100.00
42633;BME280;28261;53.304;-6.284;2023-02-10T06:39:48;102680.69;;;7.42;100.00
42633;BME280;28261;53.304;-6.284;2023-02-10T06:41:53;102684.22;;;7.41;100.00
42633;BME280;28261;53.304;-6.284;2023-02-10T06:43:57;102680.69;;;7.42;100.00
42633;BME280;28261;53.304;-6.284;2023-02-10T06:46:02;102672.72;;;7.44;100.00
42633;BME280;28261;53.304;-6.284;2023-02-10T06:48:07;102668.38;;;7.41;100.00
42633;BME280;28261;53.304;-6.284;2023-02-10T06:50:11;102677.19;;;7.40;100.00
42633;BME280;28261;53.304;-6.284;2023-02-10T06:52:16;102677.19;;;7.40;100.00
42633;BME280;28261;53.304;-6.284;2023-02-10T06:54:20;102672.84;;;7.38;100.00
42633;BME280;28261;53.304;-6.284;2023-02-10T06:56:26;102677.31;;;7.36;100.00
42633;BME280;28261;53.304;-6.284;2023-02-10T06:58:31;102661.44;;;7.37;100.00
42633;BME280;28261;53.304;-6.284;2023-02-10T07:00:35;102664.13;;;7.36;100.00
42633;BME280;28261;53.304;-6.284;2023-02-10T07:02:40;102662.41;;;7.33;100.00
42633;BME280;28261;53.304;-6.284;2023-02-10T07:04:45;102668.56;;;7.32;100.00
42633;BME280;28261;53.304;-6.284;2023-02-10T07:06:50;102670.34;;;7.32;100.00
42633;BME280;28261;53.304;-6.284;2023-02-10T07:08:55;102665.13;;;7.30;100.00
42633;BME280;28261;53.304;-6.284;2023-02-10T07:10:59;102668.66;;;7.29;100.00
42633;BME280;28261;53.304;-6.284;2023-02-10T07:13:06;102658.19;;;7.26;100.00
42633;BME280;28261;53.304;-6.284;2023-02-10T07:15:10;102667.88;;;7.24;100.00
42633;BME280;28261;53.304;-6.284;2023-02-10T07:17:15;102668.78;;;7.23;100.00
42633;BME280;28261;53.304;-6.284;2023-02-10T07:19:20;102682.88;;;7.22;100.00
42633;BME280;28261;53.304;-6.284;2023-02-10T07:21:24;102687.25;;;7.23;100.00
42633;BME280;28261;53.304;-6.284;2023-02-10T07:23:29;102681.06;;;7.24;100.00
42633;BME280;28261;53.304;-6.284;2023-02-10T07:25:38;102683.72;;;7.24;100.00
42633;BME280;28261;53.304;-6.284;2023-02-10T07:27:42;102700.38;;;7.26;100.00
42633;BME280;28261;53.304;-6.284;2023-02-10T07:29:48;102700.34;;;7.27;100.00
42633;BME280;28261;53.304;-6.284;2023-02-10T07:31:51;102698.56;;;7.28;100.00
42633;BME280;28261;53.304;-6.284;2023-02-10T07:33:55;102708.22;;;7.29;100.00
42633;BME280;28261;53.304;-6.284;2023-02-10T07:35:59;102705.63;;;7.27;100.00
42633;BME280;28261;53.304;-6.284;2023-02-10T07:38:04;102703.88;;;7.26;100.00
42633;BME280;28261;53.304;-6.284;2023-02-10T07:40:09;102710.00;;;7.28;100.00
42633;BME280;28261;53.304;-6.284;2023-02-10T07:42:14;102709.03;;;7.31;100.00
42633;BME280;28261;53.304;-6.284;2023-02-10T07:44:39;102716.97;;;7.33;100.00
42633;BME280;28261;53.304;-6.284;2023-02-10T07:46:44;102716.84;;;7.37;100.00
42633;BME280;28261;53.304;-6.284;2023-02-10T07:48:48;102713.28;;;7.40;100.00
42633;BME280;28261;53.304;-6.284;2023-02-10T07:50:52;102714.97;;;7.42;100.00
42633;BME280;28261;53.304;-6.284;2023-02-10T07:52:56;102721.13;;;7.43;100.00
42633;BME280;28261;53.304;-6.284;2023-02-10T07:54:59;102722.81;;;7.45;100.00
42633;BME280;28261;53.304;-6.284;2023-02-10T07:57:05;102725.47;;;7.45;100.00
42633;BME280;28261;53.304;-6.284;2023-02-10T07:59:08;102723.72;;;7.44;100.00
42633;BME280;28261;53.304;-6.284;2023-02-10T08:01:12;102723.75;;;7.43;100.00
42633;BME280;28261;53.304;-6.284;2023-02-10T08:03:17;102715.03;;;7.41;100.00
42633;BME280;28261;53.304;-6.284;2023-02-10T08:05:21;102721.16;;;7.41;100.00
42633;BME280;28261;53.304;-6.284;2023-02-10T08:07:25;102725.53;;;7.42;100.00
42633;BME280;28261;53.304;-6.284;2023-02-10T08:09:28;102725.59;;;7.39;100.00
42633;BME280;28261;53.304;-6.284;2023-02-10T08:11:32;102717.66;;;7.41;100.00
42633;BME280;28261;53.304;-6.284;2023-02-10T08:13:36;102723.78;;;7.41;100.00
42633;BME280;28261;53.304;-6.284;2023-02-10T08:15:40;102725.50;;;7.44;100.00
42633;BME280;28261;53.304;-6.284;2023-02-10T08:17:44;102722.81;;;7.45;100.00
42633;BME280;28261;53.304;-6.284;2023-02-10T08:19:49;102714.84;;;7.49;100.00
42633;BME280;28261;53.304;-6.284;2023-02-10T08:21:52;102716.53;;;7.51;100.00
42633;BME280;28261;53.304;-6.284;2023-02-10T08:23:56;102715.59;;;7.54;100.00
42633;BME280;28261;53.304;-6.284;2023-02-10T08:26:03;102712.06;;;7.55;100.00
42633;BME280;28261;53.304;-6.284;2023-02-10T08:28:07;102712.94;;;7.55;100.00
42633;BME280;28261;53.304;-6.284;2023-02-10T08:30:11;102724.34;;;7.56;100.00
42633;BME280;28261;53.304;-6.284;2023-02-10T08:32:15;102715.53;;;7.57;100.00
42633;BME280;28261;53.304;-6.284;2023-02-10T08:34:21;102719.03;;;7.59;100.00
42633;BME280;28261;53.304;-6.284;2023-02-10T08:36:26;102723.38;;;7.61;100.00
42633;BME280;28261;53.304;-6.284;2023-02-10T08:38:29;102721.53;;;7.63;100.00
42633;BME280;28261;53.304;-6.284;2023-02-10T08:40:33;102721.50;;;7.65;100.00
42633;BME280;28261;53.304;-6.284;2023-02-10T08:42:36;102729.38;;;7.68;100.00
42633;BME280;28261;53.304;-6.284;2023-02-10T08:44:40;102724.94;;;7.69;100.00
42633;BME280;28261;53.304;-6.284;2023-02-10T08:46:44;102724.94;;;7.69;100.00
42633;BME280;28261;53.304;-6.284;2023-02-10T08:48:48;102736.31;;;7.71;100.00
42633;BME280;28261;53.304;-6.284;2023-02-10T08:50:51;102728.41;;;7.71;100.00
42633;BME280;28261;53.304;-6.284;2023-02-10T08:52:57;102736.28;;;7.74;100.00
42633;BME280;28261;53.304;-6.284;2023-02-10T08:55:01;102737.13;;;7.74;100.00
42633;BME280;28261;53.304;-6.284;2023-02-10T08:57:05;102737.94;;;7.78;100.00
42633;BME280;28261;53.304;-6.284;2023-02-10T08:59:08;102739.66;;;7.79;100.00
42633;BME280;28261;53.304;-6.284;2023-02-10T09:01:14;102744.91;;;7.82;100.00
42633;BME280;28261;53.304;-6.284;2023-02-10T09:03:19;102743.03;;;7.86;100.00
42633;BME280;28261;53.304;-6.284;2023-02-10T09:05:25;102741.19;;;7.89;100.00
42633;BME280;28261;53.304;-6.284;2023-02-10T09:07:29;102742.06;;;7.91;100.00
42633;BME280;28261;53.304;-6.284;2023-02-10T09:09:39;102737.53;;;7.95;100.00
42633;BME280;28261;53.304;-6.284;2023-02-10T09:11:43;102750.72;;;7.96;100.00
42633;BME280;28261;53.304;-6.284;2023-02-10T09:13:47;102743.56;;;8.02;100.00
42633;BME280;28261;53.304;-6.284;2023-02-10T09:15:51;102755.81;;;8.04;100.00
42633;BME280;28261;53.304;-6.284;2023-02-10T09:17:55;102753.97;;;8.08;100.00
42633;BME280;28261;53.304;-6.284;2023-02-10T09:19:59;102759.19;;;8.11;100.00
42633;BME280;28261;53.304;-6.284;2023-02-10T09:22:04;102763.50;;;8.15;100.00
42633;BME280;28261;53.304;-6.284;2023-02-10T09:24:08;102772.19;;;8.19;100.00
42633;BME280;28261;53.304;-6.284;2023-02-10T09:26:13;102768.56;;;8.23;100.00
42633;BME280;28261;53.304;-6.284;2023-02-10T09:28:16;102772.06;;;8.25;100.00
42633;BME280;28261;53.304;-6.284;2023-02-10T09:30:21;102776.41;;;8.27;100.00
42633;BME280;28261;53.304;-6.284;2023-02-10T09:32:25;102775.41;;;8.32;100.00
42633;BME280;28261;53.304;-6.284;2023-02-10T09:34:29;102778.88;;;8.35;100.00
42633;BME280;28261;53.304;-6.284;2023-02-10T09:36:34;102781.47;;;8.37;100.00
42633;BME280;28261;53.304;-6.284;2023-02-10T09:38:38;102779.59;;;8.40;100.00
42633;BME280;28261;53.304;-6.284;2023-02-10T09:40:49;102783.94;;;8.43;100.00
42633;BME280;28261;53.304;-6.284;2023-02-10T09:43:09;102785.69;;;8.45;100.00
42633;BME280;28261;53.304;-6.284;2023-02-10T09:45:19;102790.88;;;8.49;100.00
42633;BME280;28261;53.304;-6.284;2023-02-10T09:47:36;102794.38;;;8.51;100.00
42633;BME280;28261;53.304;-6.284;2023-02-10T09:49:51;102794.28;;;8.54;100.00
42633;BME280;28261;53.304;-6.284;2023-02-10T09:52:02;102792.47;;;8.56;100.00
42633;BME280;28261;53.304;-6.284;2023-02-10T09:54:09;102783.63;;;8.57;100.00
42633;BME280;28261;53.304;-6.284;2023-02-10T09:56:17;102787.03;;;8.62;100.00
42633;BME280;28261;53.304;-6.284;2023-02-10T09:58:29;102788.69;;;8.66;100.00
42633;BME280;28261;53.304;-6.284;2023-02-10T10:00:38;102772.72;;;8.69;100.00
42633;BME280;28261;53.304;-6.284;2023-02-10T10:02:48;102783.19;;;8.74;100.00
42633;BME280;28261;53.304;-6.284;2023-02-10T10:04:55;102774.31;;;8.76;100.00
42633;BME280;28261;53.304;-6.284;2023-02-10T10:07:13;102772.44;;;8.80;100.00
42633;BME280;28261;53.304;-6.284;2023-02-10T10:09:32;102768.75;;;8.86;100.00
42633;BME280;28261;53.304;-6.284;2023-02-10T10:11:41;102766.88;;;8.91;100.00
42633;BME280;28261;53.304;-6.284;2023-02-10T10:13:47;102766.81;;;8.92;100.00
42633;BME280;28261;53.304;-6.284;2023-02-10T10:16:07;102760.53;;;8.98;100.00
42633;BME280;28261;53.304;-6.284;2023-02-10T10:18:22;102770.97;;;9.03;100.00
42633;BME280;28261;53.304;-6.284;2023-02-10T10:20:48;102763.69;;;9.11;100.00
42633;BME280;28261;53.304;-6.284;2023-02-10T10:22:58;102764.34;;;9.19;100.00
42633;BME280;28261;53.304;-6.284;2023-02-10T10:25:25;102771.97;;;9.30;100.00
42633;BME280;28261;53.304;-6.284;2023-02-10T10:27:44;102771.72;;;9.39;100.00
42633;BME280;28261;53.304;-6.284;2023-02-10T10:29:55;102773.34;;;9.43;100.00
42633;BME280;28261;53.304;-6.284;2023-02-10T10:32:04;102770.56;;;9.48;100.00
42633;BME280;28261;53.304;-6.284;2023-02-10T10:34:17;102766.00;;;9.53;100.00
42633;BME280;28261;53.304;-6.284;2023-02-10T10:36:27;102769.38;;;9.58;100.00
42633;BME280;28261;53.304;-6.284;2023-02-10T10:38:37;102770.22;;;9.59;100.00
42633;BME280;28261;53.304;-6.284;2023-02-10T10:40:45;102768.44;;;9.61;100.00
42633;BME280;28261;53.304;-6.284;2023-02-10T10:42:53;102772.78;;;9.62;100.00
42633;BME280;28261;53.304;-6.284;2023-02-10T10:45:06;102770.97;;;9.64;100.00
42633;BME280;28261;53.304;-6.284;2023-02-10T10:47:13;102759.47;;;9.65;100.00
42633;BME280;28261;53.304;-6.284;2023-02-10T10:49:18;102766.41;;;9.69;100.00
42633;BME280;28261;53.304;-6.284;2023-02-10T10:51:22;102761.00;;;9.72;100.00
42633;BME280;28261;53.304;-6.284;2023-02-10T10:53:35;102773.25;;;9.76;100.00
42633;BME280;28261;53.304;-6.284;2023-02-10T10:55:43;102763.50;;;9.77;100.00
42633;BME280;28261;53.304;-6.284;2023-02-10T10:57:51;102774.03;;;9.78;100.00
42633;BME280;28261;53.304;-6.284;2023-02-10T10:59:59;102781.88;;;9.83;100.00